createdAt,value
2023-02-18T00:01:35.789Z,49.75
2023-02-18T00:04:02.713Z,50.17
2023-02-18T00:06:33.368Z,50.18
2023-02-18T00:09:02.496Z,50.28
2023-02-18T00:11:31.845Z,50.22
2023-02-18T00:14:01.655Z,50.29
2023-02-18T00:16:29.786Z,50.57
2023-02-18T00:19:00.529Z,50.58
2023-02-18T00:21:27.777Z,50.46
2023-02-18T00:23:55.540Z,50.51
2023-02-18T00:26:22.670Z,50.56
2023-02-18T00:28:51.383Z,50.86
2023-02-18T00:31:25.025Z,50.40
2023-02-18T00:33:52.616Z,50.87
2023-02-18T00:36:22.255Z,50.93
2023-02-18T00:38:52.889Z,50.94
2023-02-18T00:41:21.467Z,50.72
2023-02-18T00:43:48.854Z,50.44
2023-02-18T00:46:16.045Z,50.46
2023-02-18T00:48:42.936Z,50.71
2023-02-18T00:51:11.354Z,50.79
2023-02-18T00:53:39.199Z,50.58
2023-02-18T00:56:07.365Z,50.51
2023-02-18T00:58:36.119Z,50.82
2023-02-18T01:01:07.665Z,50.88
2023-02-18T01:03:36.169Z,50.49
2023-02-18T01:06:04.919Z,50.57
2023-02-18T01:08:33.805Z,50.49
2023-02-18T01:11:01.033Z,50.79
2023-02-18T01:13:28.831Z,50.47
2023-02-18T01:15:56.079Z,50.23
2023-02-18T01:18:25.182Z,50.23
2023-02-18T01:20:52.242Z,50.46
2023-02-18T01:23:19.648Z,49.84
2023-02-18T01:25:48.713Z,50.04
2023-02-18T01:28:16.490Z,50.56
2023-02-18T01:30:44.167Z,50.37
2023-02-18T01:33:11.724Z,50.38
2023-02-18T01:35:40.644Z,50.41
2023-02-18T01:38:08.130Z,50.57
2023-02-18T01:40:35.366Z,50.75
2023-02-18T01:43:02.390Z,50.68
2023-02-18T01:45:35.531Z,51.25
2023-02-18T01:48:15.669Z,51.44
2023-02-18T01:50:54.588Z,51.47
2023-02-18T01:53:33.637Z,51.36
2023-02-18T01:56:05.656Z,51.56
2023-02-18T01:58:33.487Z,51.43
2023-02-18T02:01:01.827Z,51.77
2023-02-18T02:03:28.826Z,51.45
2023-02-18T02:05:55.874Z,51.38
2023-02-18T02:08:22.892Z,51.65
2023-02-18T02:11:23.616Z,51.45
2023-02-18T02:14:08.526Z,51.74
2023-02-18T02:16:40.483Z,51.78
2023-02-18T02:19:46.926Z,51.54
2023-02-18T02:22:46.736Z,52.10
2023-02-18T02:25:59.570Z,52.07
2023-02-18T02:29:29.128Z,52.23
2023-02-18T02:32:25.006Z,52.43
2023-02-18T02:34:58.947Z,52.57
2023-02-18T02:37:53.242Z,52.46
2023-02-18T02:40:42.116Z,52.67
2023-02-18T02:43:41.739Z,52.64
2023-02-18T02:46:20.703Z,52.56
2023-02-18T02:49:09.301Z,52.99
2023-02-18T02:51:47.177Z,52.73
2023-02-18T02:54:20.223Z,52.57
2023-02-18T02:56:47.448Z,52.71
2023-02-18T02:59:23.170Z,52.77
2023-02-18T03:02:26.501Z,52.60
2023-02-18T03:05:21.732Z,52.62
2023-02-18T03:08:23.875Z,52.61
2023-02-18T03:11:12.487Z,52.51
2023-02-18T03:14:15.293Z,52.44
2023-02-18T03:16:49.613Z,52.41
2023-02-18T03:19:26.344Z,52.42
2023-02-18T03:22:05.757Z,52.63
2023-02-18T03:24:39.486Z,52.57
2023-02-18T03:27:21.824Z,52.87
2023-02-18T03:29:56.921Z,52.59
2023-02-18T03:32:25.814Z,52.83
2023-02-18T03:35:00.609Z,52.68
2023-02-18T03:37:27.797Z,52.70
2023-02-18T03:39:59.907Z,52.71
2023-02-18T03:42:28.859Z,52.97
2023-02-18T03:44:55.902Z,53.23
2023-02-18T03:47:24.799Z,53.03
2023-02-18T03:49:51.729Z,53.33
2023-02-18T03:52:18.692Z,53.48
2023-02-18T03:54:45.710Z,53.75
2023-02-18T03:57:12.694Z,53.62
2023-02-18T03:59:39.590Z,53.50
2023-02-18T04:02:06.506Z,53.87
2023-02-18T04:04:33.518Z,53.87
2023-02-18T04:07:00.451Z,53.80
2023-02-18T04:09:27.321Z,54.06
2023-02-18T04:11:54.232Z,54.02
2023-02-18T04:14:21.111Z,54.12
2023-02-18T04:16:48.038Z,54.25
2023-02-18T04:19:15.021Z,54.61
2023-02-18T04:21:41.911Z,54.89
2023-02-18T04:24:09.078Z,54.70
2023-02-18T04:26:36.080Z,55.10
2023-02-18T04:29:02.967Z,55.39
2023-02-18T04:31:29.966Z,55.25
2023-02-18T04:33:56.911Z,55.28
2023-02-18T04:36:24.035Z,55.44
2023-02-18T04:38:50.928Z,55.74
2023-02-18T04:41:17.831Z,55.67
2023-02-18T04:43:44.710Z,55.90
2023-02-18T04:46:11.727Z,55.92
2023-02-18T04:48:38.779Z,56.03
2023-02-18T04:51:05.911Z,55.96
2023-02-18T04:53:32.796Z,56.20
2023-02-18T04:55:59.919Z,56.26
2023-02-18T04:58:26.807Z,56.36
2023-02-18T05:00:54.055Z,56.45
2023-02-18T05:03:21.389Z,56.56
2023-02-18T05:05:48.342Z,56.61
2023-02-18T05:08:16.304Z,56.76
2023-02-18T05:10:43.242Z,56.86
2023-02-18T05:13:10.155Z,56.86
2023-02-18T05:15:37.214Z,57.10
2023-02-18T05:18:04.212Z,57.10
2023-02-18T05:20:31.357Z,57.09
2023-02-18T05:22:58.307Z,57.01
2023-02-18T05:25:25.348Z,57.14
2023-02-18T05:27:52.238Z,57.13
2023-02-18T05:30:19.321Z,57.18
2023-02-18T05:32:46.211Z,57.11
2023-02-18T05:35:14.006Z,56.93
2023-02-18T05:37:40.879Z,57.06
2023-02-18T05:40:08.316Z,57.51
2023-02-18T05:42:35.203Z,57.41
2023-02-18T05:45:02.096Z,57.67
2023-02-18T05:47:28.982Z,57.65
2023-02-18T05:49:56.123Z,57.63
2023-02-18T05:52:23.431Z,57.90
2023-02-18T05:54:50.343Z,57.72
2023-02-18T05:57:17.290Z,57.54
2023-02-18T05:59:44.199Z,57.79
2023-02-18T06:02:11.161Z,57.84
2023-02-18T06:04:38.127Z,57.62
2023-02-18T06:07:05.118Z,57.67
2023-02-18T06:09:32.034Z,57.76
2023-02-18T06:11:58.942Z,58.00
2023-02-18T06:14:25.866Z,57.84
2023-02-18T06:16:52.730Z,57.78
2023-02-18T06:19:19.603Z,58.09
2023-02-18T06:21:46.541Z,57.93
2023-02-18T06:24:13.419Z,58.13
2023-02-18T06:26:40.302Z,58.13
2023-02-18T06:29:07.222Z,57.97
2023-02-18T06:31:34.231Z,57.87
2023-02-18T06:34:01.197Z,58.03
2023-02-18T06:36:28.073Z,57.93
2023-02-18T06:38:57.405Z,57.88
2023-02-18T06:41:24.486Z,58.20
2023-02-18T06:43:51.652Z,58.20
2023-02-18T06:46:18.586Z,58.00
2023-02-18T06:48:45.525Z,58.29
2023-02-18T06:51:12.454Z,58.11
2023-02-18T06:53:39.366Z,58.33
2023-02-18T06:56:06.488Z,58.19
2023-02-18T06:58:33.610Z,58.27
2023-02-18T07:01:00.570Z,58.03
2023-02-18T07:03:27.855Z,57.85
2023-02-18T07:05:54.792Z,58.20
2023-02-18T07:08:21.832Z,57.92
2023-02-18T07:10:49.471Z,57.75
2023-02-18T07:13:16.434Z,58.02
2023-02-18T07:15:43.450Z,58.16
2023-02-18T07:18:10.371Z,58.08
2023-02-18T07:20:37.264Z,57.85
2023-02-18T07:23:04.267Z,57.65
2023-02-18T07:25:31.142Z,57.78
2023-02-18T07:27:58.045Z,57.55
2023-02-18T07:30:25.000Z,57.31
2023-02-18T07:32:51.916Z,57.27
2023-02-18T07:35:19.147Z,57.25
2023-02-18T07:37:48.484Z,57.18
2023-02-18T07:40:20.245Z,56.63
2023-02-18T07:42:47.750Z,56.80
2023-02-18T07:45:15.374Z,56.49
2023-02-18T07:47:42.579Z,56.15
2023-02-18T07:50:11.159Z,56.09
2023-02-18T07:52:38.094Z,56.29
2023-02-18T07:55:05.301Z,56.17
2023-02-18T07:57:32.268Z,55.79
2023-02-18T07:59:59.195Z,55.55
2023-02-18T08:02:26.238Z,55.18
2023-02-18T08:04:53.175Z,55.20
2023-02-18T08:07:22.035Z,54.42
2023-02-18T08:09:50.693Z,54.62
2023-02-18T08:12:18.107Z,54.36
2023-02-18T08:14:45.911Z,54.70
2023-02-18T08:17:12.798Z,54.31
2023-02-18T08:19:39.685Z,54.52
2023-02-18T08:22:06.630Z,54.33
2023-02-18T08:24:33.519Z,54.39
2023-02-18T08:27:01.717Z,54.47
2023-02-18T08:29:29.787Z,54.53
2023-02-18T08:31:58.186Z,53.57
2023-02-18T08:34:25.739Z,53.69
2023-02-18T08:36:52.620Z,53.29
2023-02-18T08:39:19.513Z,53.39
2023-02-18T08:41:46.385Z,53.00
2023-02-18T08:44:13.270Z,52.86
2023-02-18T08:46:40.213Z,53.37
2023-02-18T08:49:07.239Z,53.00
2023-02-18T08:51:34.527Z,53.55
2023-02-18T08:54:01.808Z,53.24
2023-02-18T08:56:28.771Z,53.43
2023-02-18T08:58:55.671Z,53.29
2023-02-18T09:01:22.612Z,53.41
2023-02-18T09:03:49.694Z,53.59
2023-02-18T09:06:16.706Z,53.34
2023-02-18T09:08:43.755Z,53.13
2023-02-18T09:11:11.654Z,53.44
2023-02-18T09:13:38.954Z,53.24
2023-02-18T09:16:15.389Z,53.44
2023-02-18T09:18:42.515Z,53.42
2023-02-18T09:21:11.804Z,53.25
2023-02-18T09:23:39.428Z,53.54
2023-02-18T09:26:09.932Z,53.39
2023-02-18T09:28:37.409Z,52.89
2023-02-18T09:31:10.688Z,53.09
2023-02-18T09:33:40.459Z,53.22
2023-02-18T09:36:08.352Z,53.46
2023-02-18T09:38:35.469Z,53.08
2023-02-18T09:41:09.645Z,53.27
2023-02-18T09:43:48.619Z,53.08
2023-02-18T09:46:30.060Z,53.24
2023-02-18T09:48:58.326Z,53.56
2023-02-18T09:51:25.219Z,53.78
2023-02-18T09:53:52.134Z,53.67
2023-02-18T09:56:35.837Z,53.95
2023-02-18T09:59:10.017Z,53.71
2023-02-18T10:01:39.961Z,54.12
2023-02-18T10:04:41.221Z,54.11
2023-02-18T10:07:21.804Z,54.68
2023-02-18T10:09:52.288Z,54.91
2023-02-18T10:12:23.413Z,54.69
2023-02-18T10:14:57.431Z,55.36
2023-02-18T10:17:28.519Z,55.26
2023-02-18T10:19:56.931Z,55.44
2023-02-18T10:22:26.178Z,55.81
2023-02-18T10:25:00.126Z,55.59
2023-02-18T10:27:31.556Z,56.02
2023-02-18T10:30:24.408Z,55.90
2023-02-18T10:33:30.782Z,56.31
2023-02-18T10:36:42.103Z,56.26
2023-02-18T10:39:24.313Z,56.29
2023-02-18T10:42:30.247Z,56.35
2023-02-18T10:45:30.931Z,56.49
2023-02-18T10:48:18.723Z,57.06
2023-02-18T10:50:46.446Z,57.03
2023-02-18T10:53:34.843Z,56.93
2023-02-18T10:56:02.128Z,57.16
2023-02-18T10:58:42.933Z,57.41
2023-02-18T11:01:20.645Z,57.24
2023-02-18T11:03:51.144Z,57.13
2023-02-18T11:06:40.009Z,57.04
2023-02-18T11:09:24.093Z,57.55
2023-02-18T11:11:57.070Z,57.42
2023-02-18T11:14:46.855Z,57.39
2023-02-18T11:17:21.178Z,57.75
2023-02-18T11:20:01.738Z,57.94
2023-02-18T11:22:39.750Z,58.09
2023-02-18T11:25:28.848Z,58.25
2023-02-18T11:27:58.566Z,58.35
2023-02-18T11:30:39.562Z,58.41
2023-02-18T11:33:23.548Z,58.38
2023-02-18T11:35:58.713Z,58.50
2023-02-18T11:38:36.287Z,58.49
2023-02-18T11:41:10.055Z,58.73
2023-02-18T11:43:42.015Z,58.69
2023-02-18T11:46:19.475Z,58.26
2023-02-18T11:48:47.133Z,57.98
2023-02-18T11:51:36.537Z,58.24
2023-02-18T11:54:30.134Z,58.72
2023-02-18T11:57:09.562Z,58.84
2023-02-18T11:59:40.723Z,58.59
2023-02-18T12:02:10.707Z,58.82
2023-02-18T12:04:44.194Z,59.07
2023-02-18T12:07:31.800Z,58.51
2023-02-18T12:10:05.220Z,58.46
2023-02-18T12:12:46.870Z,58.38
2023-02-18T12:15:20.595Z,58.19
2023-02-18T12:18:11.650Z,58.38
2023-02-18T12:21:12.708Z,58.04
2023-02-18T12:24:14.975Z,58.33
2023-02-18T12:26:54.594Z,58.67
2023-02-18T12:30:19.389Z,58.77
2023-02-18T12:32:57.968Z,58.94
2023-02-18T12:36:07.890Z,59.09
2023-02-18T12:39:06.214Z,58.93
2023-02-18T12:42:21.538Z,58.82
2023-02-18T12:45:10.073Z,58.79
2023-02-18T12:47:57.338Z,58.59
2023-02-18T12:50:51.157Z,58.82
2023-02-18T12:54:12.950Z,58.46
2023-02-18T12:57:05.491Z,58.30
2023-02-18T13:00:11.819Z,58.19
2023-02-18T13:02:56.452Z,58.12
2023-02-18T13:05:36.844Z,58.26
2023-02-18T13:08:30.048Z,58.37
2023-02-18T13:11:12.594Z,58.26
2023-02-18T13:14:00.946Z,58.17
2023-02-18T13:16:29.413Z,58.19
2023-02-18T13:19:33.628Z,58.08
2023-02-18T13:22:06.342Z,57.79
2023-02-18T13:24:43.873Z,57.70
2023-02-18T13:27:19.279Z,57.38
2023-02-18T13:30:14.154Z,57.27
2023-02-18T13:33:21.871Z,57.44
2023-02-18T13:35:58.911Z,57.58
2023-02-18T13:39:00.101Z,57.35
2023-02-18T13:41:27.836Z,57.51
2023-02-18T13:43:55.078Z,57.52
2023-02-18T13:46:24.197Z,57.54
2023-02-18T13:49:13.284Z,57.69
2023-02-18T13:51:47.716Z,57.65
2023-02-18T13:54:17.403Z,57.44
2023-02-18T13:56:51.140Z,57.42
2023-02-18T13:59:40.276Z,57.41
2023-02-18T14:02:25.766Z,57.43
2023-02-18T14:04:58.812Z,57.44
2023-02-18T14:07:40.397Z,57.44
2023-02-18T14:10:19.046Z,57.45
2023-02-18T14:12:58.124Z,57.46
2023-02-18T14:15:25.014Z,57.39
2023-02-18T14:18:13.463Z,56.95
2023-02-18T14:20:40.321Z,57.16
2023-02-18T14:23:19.319Z,56.49
2023-02-18T14:25:55.240Z,56.60
2023-02-18T14:28:34.101Z,56.75
2023-02-18T14:31:39.237Z,56.86
2023-02-18T14:34:23.808Z,56.98
2023-02-18T14:37:05.972Z,56.89
2023-02-18T14:39:48.045Z,56.72
2023-02-18T14:42:43.705Z,56.99
2023-02-18T14:45:31.036Z,56.95
2023-02-18T14:48:49.237Z,57.13
2023-02-18T14:51:20.210Z,57.41
2023-02-18T14:53:47.802Z,57.23
2023-02-18T14:56:18.821Z,57.07
2023-02-18T14:58:51.262Z,56.97
2023-02-18T15:01:31.713Z,57.43
2023-02-18T15:04:01.006Z,57.48
2023-02-18T15:06:38.383Z,57.81
2023-02-18T15:09:19.759Z,57.89
2023-02-18T15:11:50.555Z,57.90
2023-02-18T15:14:25.095Z,57.93
2023-02-18T15:16:53.174Z,57.92
2023-02-18T15:19:26.191Z,57.82
2023-02-18T15:21:56.275Z,57.90
2023-02-18T15:24:39.023Z,57.57
2023-02-18T15:27:15.032Z,57.19
2023-02-18T15:29:42.377Z,57.62
2023-02-18T15:32:22.644Z,57.71
2023-02-18T15:34:52.538Z,57.71
2023-02-18T15:37:19.565Z,57.80
2023-02-18T15:39:46.901Z,58.05
2023-02-18T15:42:35.746Z,58.25
2023-02-18T15:45:23.739Z,58.18
2023-02-18T15:47:56.844Z,58.35
2023-02-18T15:50:36.889Z,58.31
2023-02-18T15:53:14.281Z,58.42
2023-02-18T15:55:46.478Z,58.61
2023-02-18T15:58:32.651Z,58.62
2023-02-18T16:01:06.162Z,58.70
2023-02-18T16:03:46.580Z,58.56
2023-02-18T16:06:27.307Z,58.46
2023-02-18T16:09:02.864Z,58.64
2023-02-18T16:11:43.973Z,58.90
2023-02-18T16:14:33.693Z,58.58
2023-02-18T16:17:20.201Z,58.83
2023-02-18T16:20:05.705Z,58.43
2023-02-18T16:22:36.438Z,58.68
2023-02-18T16:25:21.665Z,58.76
2023-02-18T16:27:55.331Z,59.00
2023-02-18T16:30:32.697Z,59.13
2023-02-18T16:33:00.578Z,58.77
2023-02-18T16:35:32.718Z,58.99
2023-02-18T16:38:01.867Z,59.14
2023-02-18T16:40:33.866Z,59.24
2023-02-18T16:43:10.032Z,59.03
2023-02-18T16:45:49.159Z,59.09
2023-02-18T16:48:40.642Z,58.86
2023-02-18T16:51:34.703Z,58.95
2023-02-18T16:54:01.674Z,58.54
2023-02-18T16:56:33.151Z,58.64
2023-02-18T16:59:00.187Z,58.47
2023-02-18T17:01:31.878Z,58.45
2023-02-18T17:04:00.575Z,58.54
2023-02-18T17:06:28.553Z,58.44
2023-02-18T17:08:57.101Z,58.53
2023-02-18T17:11:29.416Z,58.55
2023-02-18T17:13:59.514Z,58.81
2023-02-18T17:16:27.882Z,58.72
2023-02-18T17:18:54.794Z,58.72
2023-02-18T17:21:25.068Z,58.89
2023-02-18T17:23:52.917Z,58.94
2023-02-18T17:26:27.741Z,59.17
2023-02-18T17:28:57.847Z,59.16
2023-02-18T17:31:28.656Z,58.98
2023-02-18T17:33:59.378Z,59.23
2023-02-18T17:36:26.646Z,59.30
2023-02-18T17:38:53.825Z,59.38
2023-02-18T17:41:20.791Z,58.96
2023-02-18T17:43:47.659Z,59.12
2023-02-18T17:46:17.466Z,59.48
2023-02-18T17:48:46.162Z,59.72
2023-02-18T17:51:29.493Z,60.00
2023-02-18T17:53:56.875Z,59.95
2023-02-18T17:56:23.798Z,60.29
2023-02-18T17:58:50.702Z,60.38
2023-02-18T18:01:20.833Z,60.43
2023-02-18T18:03:47.727Z,60.61
2023-02-18T18:06:19.540Z,60.73
2023-02-18T18:08:47.983Z,60.77
2023-02-18T18:11:20.761Z,60.52
2023-02-18T18:13:48.122Z,60.88
2023-02-18T18:16:17.618Z,61.38
2023-02-18T18:18:44.918Z,61.35
2023-02-18T18:21:30.329Z,61.36
2023-02-18T18:23:57.239Z,61.62
2023-02-18T18:26:24.874Z,61.65
2023-02-18T18:28:51.739Z,61.96
2023-02-18T18:31:20.258Z,61.88
2023-02-18T18:33:51.487Z,62.21
2023-02-18T18:36:20.050Z,62.19
2023-02-18T18:38:47.018Z,62.10
2023-02-18T18:41:17.696Z,62.17
2023-02-18T18:43:45.164Z,61.85
2023-02-18T18:46:12.341Z,61.92
2023-02-18T18:48:39.948Z,62.13
2023-02-18T18:51:07.082Z,61.99
2023-02-18T18:53:35.448Z,62.02
2023-02-18T18:56:08.233Z,62.32
2023-02-18T18:58:35.122Z,62.07
2023-02-18T19:01:05.126Z,62.68
2023-02-18T19:03:33.876Z,62.29
2023-02-18T19:06:00.815Z,62.51
2023-02-18T19:08:27.778Z,62.64
2023-02-18T19:10:57.295Z,62.87
2023-02-18T19:13:28.268Z,62.88
2023-02-18T19:16:18.380Z,63.00
2023-02-18T19:18:46.324Z,63.21
2023-02-18T19:21:13.289Z,62.86
2023-02-18T19:23:40.809Z,62.92
2023-02-18T19:26:08.444Z,62.86
2023-02-18T19:28:35.476Z,63.19
2023-02-18T19:31:02.654Z,63.51
2023-02-18T19:33:29.741Z,63.20
2023-02-18T19:35:56.653Z,63.18
2023-02-18T19:38:23.533Z,63.25
2023-02-18T19:40:50.477Z,63.61
2023-02-18T19:43:17.359Z,63.30
2023-02-18T19:45:46.995Z,63.38
2023-02-18T19:48:15.430Z,63.47
2023-02-18T19:50:43.691Z,63.04
2023-02-18T19:53:11.488Z,62.71
2023-02-18T19:55:38.889Z,63.07
2023-02-18T19:58:06.404Z,63.56
2023-02-18T20:00:33.392Z,63.27
2023-02-18T20:03:00.409Z,63.32
2023-02-18T20:05:27.677Z,63.14
2023-02-18T20:07:54.568Z,63.24
2023-02-18T20:10:22.040Z,62.97
2023-02-18T20:12:53.873Z,62.94
2023-02-18T20:15:21.482Z,62.75
2023-02-18T20:17:48.454Z,63.05
2023-02-18T20:20:15.424Z,63.30
2023-02-18T20:22:42.325Z,63.18
2023-02-18T20:25:09.269Z,63.19
2023-02-18T20:27:38.421Z,63.19
2023-02-18T20:30:09.339Z,63.09
2023-02-18T20:32:37.041Z,63.47
2023-02-18T20:35:05.691Z,63.17
2023-02-18T20:37:34.244Z,63.09
2023-02-18T20:40:01.207Z,62.77
2023-02-18T20:42:28.107Z,63.17
2023-02-18T20:44:54.990Z,63.09
2023-02-18T20:47:21.958Z,63.02
2023-02-18T20:49:48.859Z,63.13
2023-02-18T20:52:16.293Z,63.04
2023-02-18T20:54:43.230Z,62.85
2023-02-18T20:57:10.136Z,62.81
2023-02-18T20:59:37.026Z,62.57
2023-02-18T21:02:04.532Z,63.17
2023-02-18T21:04:31.463Z,62.98
2023-02-18T21:06:58.385Z,63.08
2023-02-18T21:09:25.350Z,63.14
2023-02-18T21:11:52.248Z,62.76
2023-02-18T21:14:19.155Z,63.14
2023-02-18T21:16:46.389Z,63.02
2023-02-18T21:19:16.877Z,63.21
2023-02-18T21:21:45.213Z,63.14
2023-02-18T21:24:12.176Z,62.87
2023-02-18T21:26:39.472Z,62.94
2023-02-18T21:29:08.247Z,62.84
2023-02-18T21:31:41.648Z,63.07
2023-02-18T21:34:12.728Z,63.36
2023-02-18T21:36:39.710Z,63.06
2023-02-18T21:39:09.685Z,63.40
2023-02-18T21:41:40.217Z,63.25
2023-02-18T21:44:08.228Z,63.19
2023-02-18T21:46:36.674Z,63.14
2023-02-18T21:49:04.717Z,63.55
2023-02-18T21:52:01.895Z,64.09
2023-02-18T21:54:39.281Z,64.22
2023-02-18T21:57:12.429Z,64.73
2023-02-18T21:59:40.085Z,64.82
2023-02-18T22:02:14.741Z,64.99
2023-02-18T22:04:41.678Z,65.26
2023-02-18T22:07:08.886Z,65.18
2023-02-18T22:09:36.607Z,65.26
2023-02-18T22:12:04.160Z,65.60
2023-02-18T22:14:31.038Z,65.38
2023-02-18T22:16:58.142Z,65.45
2023-02-18T22:19:25.342Z,65.54
2023-02-18T22:21:52.528Z,65.33
2023-02-18T22:24:19.509Z,65.34
2023-02-18T22:26:46.957Z,65.68
2023-02-18T22:29:16.166Z,65.58
2023-02-18T22:31:43.365Z,65.38
2023-02-18T22:34:11.214Z,65.71
2023-02-18T22:36:38.361Z,65.85
2023-02-18T22:39:06.066Z,65.54
2023-02-18T22:41:34.606Z,65.51
2023-02-18T22:44:04.755Z,65.70
2023-02-18T22:46:34.142Z,65.74
2023-02-18T22:49:02.459Z,65.64
2023-02-18T22:51:33.279Z,65.54
2023-02-18T22:54:01.939Z,65.34
2023-02-18T22:56:29.968Z,65.39
2023-02-18T22:58:58.619Z,65.43
2023-02-18T23:01:31.204Z,65.40
2023-02-18T23:04:06.837Z,65.47
2023-02-18T23:06:34.272Z,65.44
2023-02-18T23:09:01.246Z,65.28
2023-02-18T23:11:28.125Z,65.12
2023-02-18T23:14:14.855Z,64.95
2023-02-18T23:17:00.606Z,64.83
2023-02-18T23:19:30.106Z,64.80
2023-02-18T23:21:57.638Z,64.77
2023-02-18T23:24:25.151Z,64.64
2023-02-18T23:26:52.018Z,64.96
2023-02-18T23:29:19.161Z,64.97
2023-02-18T23:31:46.116Z,64.60
2023-02-18T23:34:15.494Z,64.49
2023-02-18T23:36:43.675Z,64.54
2023-02-18T23:39:13.369Z,64.59
2023-02-18T23:41:40.291Z,64.31
2023-02-18T23:44:12.317Z,64.41
2023-02-18T23:46:40.333Z,64.19
2023-02-18T23:49:07.392Z,64.30
2023-02-18T23:51:34.277Z,64.37
2023-02-18T23:54:03.648Z,64.47
2023-02-18T23:56:30.830Z,64.63
2023-02-18T23:59:00.760Z,64.36
